Time;durP1;ratioP1;P1;durP2;ratioP2;P2;SDS_P1;SDS_P2;PMS_P1;PMS_P2;Temp;Humidity;BMP_temperature;BMP_pressure;BME280_temperature;BME280_humidity;BME280_pressure;Samples;Min_cycle;Max_cycle;Signal;HPM_P1;HPM_P2
2021/10/21 00:00:37;;;;;;;22.50;20.77;;;;;;;;;;5094730;28;20453;-85
2021/10/21 00:03:04;;;;;;;21.00;19.60;;;;;;;;;;5093258;28;20466;-85
2021/10/21 00:05:32;;;;;;;22.20;20.77;;;;;;;;;;5094634;28;20459;-84
2021/10/21 00:07:59;;;;;;;21.93;20.40;;;;;;;;;;5094543;28;20445;-85
2021/10/21 00:10:28;;;;;;;21.93;20.63;;;;;;;;;;5094034;28;20449;-85
2021/10/21 00:12:55;;;;;;;22.07;20.70;;;;;;;;;;5094454;28;20424;-84
2021/10/21 00:15:23;;;;;;;21.10;20.00;;;;;;;;;;5094754;28;20411;-85
2021/10/21 00:17:50;;;;;;;20.90;19.53;;;;;;;;;;5094513;28;20417;-86
2021/10/21 00:20:17;;;;;;;21.03;19.77;;;;;;;;;;5094578;28;20477;-85
2021/10/21 00:22:45;;;;;;;21.53;20.10;;;;;;;;;;5094011;28;20846;-86
2021/10/21 00:25:12;;;;;;;21.00;19.77;;;;;;;;;;5094263;28;20413;-85
2021/10/21 00:27:41;;;;;;;19.93;18.80;;;;;;;;;;5093775;28;20412;-84
2021/10/21 00:30:09;;;;;;;21.67;20.30;;;;;;;;;;5094260;28;20407;-85
2021/10/21 00:32:36;;;;;;;20.40;19.30;;;;;;;;;;5094084;28;20472;-84
2021/10/21 00:35:04;;;;;;;19.43;18.30;;;;;;;;;;5094085;28;20913;-85
2021/10/21 00:37:31;;;;;;;20.30;19.00;;;;;;;;;;5094251;28;20471;-85
2021/10/21 00:39:58;;;;;;;20.70;19.47;;;;;;;;;;5094127;28;20413;-85
2021/10/21 00:42:26;;;;;;;20.93;19.70;;;;;;;;;;5094001;28;20461;-86
2021/10/21 00:44:54;;;;;;;19.00;17.90;;;;;;;;;;5093925;28;20425;-85
2021/10/21 00:47:22;;;;;;;20.20;19.07;;;;;;;;;;5093783;28;20416;-85
2021/10/21 00:49:49;;;;;;;21.67;20.17;;;;;;;;;;5093925;28;20443;-86
2021/10/21 00:52:17;;;;;;;20.83;19.40;;;;;;;;;;5094055;28;20462;-85
2021/10/21 00:54:45;;;;;;;20.27;18.83;;;;;;;;;;5093813;28;20428;-86
2021/10/21 00:57:13;;;;;;;20.93;19.53;;;;;;;;;;5093648;28;20469;-85
2021/10/21 00:59:42;;;;;;;20.80;19.60;;;;;;;;;;5094064;28;20416;-85
2021/10/21 01:02:11;;;;;;;19.40;18.10;;;;;;;;;;5093757;28;20529;-85
2021/10/21 01:04:38;;;;;;;18.33;17.30;;;;;;;;;;5093988;28;20407;-85
2021/10/21 01:07:06;;;;;;;18.53;17.40;;;;;;;;;;5093906;28;20416;-85
2021/10/21 01:09:34;;;;;;;18.77;17.77;;;;;;;;;;5093899;28;20415;-85
2021/10/21 01:12:01;;;;;;;18.90;17.83;;;;;;;;;;5093459;28;20427;-86
2021/10/21 01:14:29;;;;;;;19.70;18.70;;;;;;;;;;5093524;28;20411;-85
2021/10/21 01:16:56;;;;;;;19.83;18.73;;;;;;;;;;5093866;28;20445;-85
2021/10/21 01:19:26;;;;;;;19.50;18.50;;;;;;;;;;5093292;28;20434;-85
2021/10/21 01:21:56;;;;;;;18.47;17.37;;;;;;;;;;5096144;28;20471;-85
2021/10/21 01:24:24;;;;;;;18.60;17.70;;;;;;;;;;5097954;28;20440;-85
2021/10/21 01:26:52;;;;;;;19.07;17.97;;;;;;;;;;5097746;28;20471;-85
2021/10/21 01:29:20;;;;;;;20.03;18.53;;;;;;;;;;5097773;28;20431;-85
2021/10/21 01:31:48;;;;;;;19.60;18.60;;;;;;;;;;5097442;28;20807;-85
2021/10/21 01:34:16;;;;;;;20.70;19.50;;;;;;;;;;5097690;28;20768;-85
2021/10/21 01:36:44;;;;;;;21.40;19.70;;;;;;;;;;5097225;28;20454;-85
2021/10/21 01:39:13;;;;;;;22.63;20.87;;;;;;;;;;5097232;28;20520;-85
2021/10/21 01:41:41;;;;;;;24.23;22.20;;;;;;;;;;5096307;28;20474;-84
2021/10/21 01:44:08;;;;;;;23.93;22.53;;;;;;;;;;5096370;28;20449;-85
2021/10/21 01:46:36;;;;;;;25.47;23.83;;;;;;;;;;5097427;28;20881;-85
2021/10/21 01:49:03;;;;;;;25.53;23.70;;;;;;;;;;5097009;28;20416;-85
2021/10/21 01:51:31;;;;;;;26.77;24.97;;;;;;;;;;5096920;28;20452;-85
2021/10/21 01:53:58;;;;;;;25.77;24.30;;;;;;;;;;5097192;28;20440;-85
2021/10/21 01:56:27;;;;;;;26.30;24.70;;;;;;;;;;5095772;28;20441;-84
2021/10/21 01:58:54;;;;;;;27.93;26.10;;;;;;;;;;5096541;28;20944;-85
2021/10/21 02:01:22;;;;;;;26.57;25.03;;;;;;;;;;5096866;28;20412;-85
2021/10/21 02:03:49;;;;;;;27.90;26.10;;;;;;;;;;5096967;28;21098;-85
2021/10/21 02:06:17;;;;;;;28.37;26.47;;;;;;;;;;5096718;28;20408;-85
2021/10/21 02:08:44;;;;;;;30.07;28.17;;;;;;;;;;5097354;28;20404;-85
2021/10/21 02:11:11;;;;;;;27.97;26.37;;;;;;;;;;5096833;28;20417;-85
2021/10/21 02:13:40;;;;;;;29.63;27.80;;;;;;;;;;5095312;28;20919;-85
2021/10/21 02:16:08;;;;;;;29.53;27.50;;;;;;;;;;5096648;28;20441;-85
2021/10/21 02:18:35;;;;;;;29.00;27.10;;;;;;;;;;5096770;28;20768;-83
2021/10/21 02:21:03;;;;;;;30.63;27.87;;;;;;;;;;5096578;28;20453;-85
2021/10/21 02:23:30;;;;;;;28.47;26.90;;;;;;;;;;5096181;28;20474;-85
2021/10/21 02:25:57;;;;;;;28.77;27.17;;;;;;;;;;5095656;28;20490;-85
2021/10/21 02:28:25;;;;;;;30.57;28.70;;;;;;;;;;5096157;28;20424;-85
2021/10/21 02:30:54;;;;;;;27.70;26.03;;;;;;;;;;5094721;28;20423;-85
2021/10/21 02:33:21;;;;;;;26.03;24.63;;;;;;;;;;5095396;28;20435;-85
2021/10/21 02:35:49;;;;;;;24.50;23.30;;;;;;;;;;5095842;28;20913;-84
2021/10/21 02:38:16;;;;;;;25.30;23.83;;;;;;;;;;5096232;28;20419;-85
2021/10/21 02:40:44;;;;;;;25.70;24.30;;;;;;;;;;5094904;28;20472;-85
2021/10/21 02:43:12;;;;;;;24.30;23.10;;;;;;;;;;5096111;28;21013;-84
2021/10/21 02:45:40;;;;;;;23.40;22.30;;;;;;;;;;5096060;28;20418;-85
2021/10/21 02:48:09;;;;;;;23.27;22.07;;;;;;;;;;5096182;28;20938;-85
2021/10/21 02:50:37;;;;;;;23.13;21.93;;;;;;;;;;5095803;28;20415;-84
2021/10/21 02:53:04;;;;;;;21.40;20.30;;;;;;;;;;5095892;28;20465;-85
2021/10/21 02:55:32;;;;;;;22.30;21.20;;;;;;;;;;5096004;28;20411;-84
2021/10/21 02:57:59;;;;;;;22.80;21.70;;;;;;;;;;5094307;28;20451;-85
2021/10/21 03:00:27;;;;;;;21.63;20.43;;;;;;;;;;5096073;28;20519;-85
2021/10/21 03:02:54;;;;;;;22.90;21.53;;;;;;;;;;5095938;28;20477;-84
2021/10/21 03:05:24;;;;;;;18.87;18.07;;;;;;;;;;5096159;27;20489;-84
2021/10/21 03:07:52;;;;;;;20.70;19.70;;;;;;;;;;5095559;28;20438;-85
2021/10/21 03:10:19;;;;;;;18.77;17.90;;;;;;;;;;5095847;28;20443;-85
2021/10/21 03:12:47;;;;;;;19.30;18.40;;;;;;;;;;5095227;28;20448;-84
2021/10/21 03:15:14;;;;;;;18.73;17.83;;;;;;;;;;5095413;28;20423;-84
2021/10/21 03:17:42;;;;;;;19.43;18.33;;;;;;;;;;5095644;28;20416;-84
2021/10/21 03:20:12;;;;;;;18.63;17.63;;;;;;;;;;5095384;28;20434;-85
2021/10/21 03:22:41;;;;;;;17.97;17.10;;;;;;;;;;5095345;28;20486;-83
2021/10/21 03:25:09;;;;;;;18.60;17.70;;;;;;;;;;5094038;28;20420;-85
2021/10/21 03:27:37;;;;;;;18.53;17.73;;;;;;;;;;5095542;28;20413;-85
2021/10/21 03:30:05;;;;;;;18.13;17.23;;;;;;;;;;5093895;28;20424;-85
2021/10/21 03:32:32;;;;;;;19.00;17.53;;;;;;;;;;5094936;28;20443;-85
2021/10/21 03:35:00;;;;;;;18.30;17.20;;;;;;;;;;5094830;28;20434;-85
2021/10/21 03:37:28;;;;;;;18.27;17.33;;;;;;;;;;5093823;28;20473;-86
2021/10/21 03:39:57;;;;;;;18.03;17.03;;;;;;;;;;5094823;28;20437;-85
2021/10/21 03:42:24;;;;;;;18.77;17.67;;;;;;;;;;5095164;28;20787;-85
2021/10/21 03:44:54;;;;;;;18.63;17.53;;;;;;;;;;5093873;28;20915;-85
2021/10/21 03:47:22;;;;;;;19.53;17.93;;;;;;;;;;5095006;28;20408;-85
2021/10/21 03:49:50;;;;;;;18.73;17.53;;;;;;;;;;5094877;28;20445;-85
2021/10/21 03:52:19;;;;;;;18.80;17.90;;;;;;;;;;5094937;28;20440;-85
2021/10/21 03:54:46;;;;;;;18.83;17.93;;;;;;;;;;5095009;28;20464;-85
2021/10/21 03:57:15;;;;;;;18.97;17.80;;;;;;;;;;5094533;28;20834;-85
2021/10/21 03:59:43;;;;;;;18.67;17.77;;;;;;;;;;5094877;28;20404;-84
2021/10/21 04:02:10;;;;;;;18.40;17.40;;;;;;;;;;5094583;28;20918;-85
2021/10/21 04:04:38;;;;;;;20.00;18.33;;;;;;;;;;5094913;28;20981;-85
2021/10/21 04:07:05;;;;;;;20.30;19.00;;;;;;;;;;5094539;28;20787;-84
2021/10/21 04:09:33;;;;;;;19.00;17.90;;;;;;;;;;5094529;28;20445;-85
2021/10/21 04:12:00;;;;;;;18.83;17.83;;;;;;;;;;5094399;28;20415;-85
2021/10/21 04:14:29;;;;;;;19.60;18.37;;;;;;;;;;5093463;28;20491;-85
2021/10/21 04:16:57;;;;;;;18.87;17.87;;;;;;;;;;5094127;28;20432;-85
2021/10/21 04:19:24;;;;;;;19.30;18.00;;;;;;;;;;5094395;28;20460;-85
2021/10/21 04:21:52;;;;;;;19.43;18.33;;;;;;;;;;5094421;28;20445;-85
2021/10/21 04:24:19;;;;;;;18.67;17.50;;;;;;;;;;5094314;28;20451;-85
2021/10/21 04:26:46;;;;;;;18.93;17.67;;;;;;;;;;5094550;28;20848;-85
2021/10/21 04:29:14;;;;;;;19.03;17.83;;;;;;;;;;5094040;28;20440;-85
2021/10/21 04:31:43;;;;;;;18.80;17.80;;;;;;;;;;5094392;28;20766;-84
2021/10/21 04:34:10;;;;;;;18.83;17.93;;;;;;;;;;5094215;28;20416;-85
2021/10/21 04:36:38;;;;;;;18.63;17.63;;;;;;;;;;5094215;28;20473;-86
2021/10/21 04:39:05;;;;;;;19.43;18.20;;;;;;;;;;5092909;28;20453;-86
2021/10/21 04:41:33;;;;;;;19.30;18.00;;;;;;;;;;5093928;28;20893;-85
2021/10/21 04:44:00;;;;;;;19.97;18.33;;;;;;;;;;5093881;28;20498;-85
2021/10/21 04:46:28;;;;;;;19.43;18.17;;;;;;;;;;5093825;28;20440;-85
2021/10/21 04:48:56;;;;;;;18.90;17.80;;;;;;;;;;5093912;28;20445;-85
2021/10/21 04:51:24;;;;;;;19.43;17.77;;;;;;;;;;5094131;28;20438;-85
2021/10/21 04:53:51;;;;;;;19.40;18.10;;;;;;;;;;5093990;28;20435;-85
2021/10/21 04:56:19;;;;;;;19.47;18.27;;;;;;;;;;5093535;28;20456;-84
2021/10/21 04:58:46;;;;;;;17.83;16.83;;;;;;;;;;5093284;28;20822;-85
2021/10/21 05:01:13;;;;;;;18.93;17.40;;;;;;;;;;5093620;28;20437;-85
2021/10/21 05:03:41;;;;;;;18.40;17.40;;;;;;;;;;5093210;28;20481;-85
2021/10/21 05:06:10;;;;;;;19.40;18.17;;;;;;;;;;5093737;28;20407;-84
2021/10/21 05:08:37;;;;;;;18.57;17.63;;;;;;;;;;5093455;28;20746;-84
2021/10/21 05:11:04;;;;;;;18.63;17.30;;;;;;;;;;5093550;28;20412;-82
2021/10/21 05:13:32;;;;;;;19.47;18.37;;;;;;;;;;5093383;28;20448;-83
2021/10/21 05:15:59;;;;;;;18.70;17.60;;;;;;;;;;5093680;28;20949;-86
2021/10/21 05:18:27;;;;;;;18.83;17.63;;;;;;;;;;5094255;28;20403;-84
2021/10/21 05:20:54;;;;;;;18.33;17.33;;;;;;;;;;5093554;28;20410;-86
2021/10/21 05:23:23;;;;;;;19.50;18.00;;;;;;;;;;5093533;28;20451;-88
2021/10/21 05:25:50;;;;;;;18.10;17.10;;;;;;;;;;5092756;28;20432;-84
2021/10/21 05:28:18;;;;;;;19.23;17.80;;;;;;;;;;5092811;28;20929;-83
2021/10/21 05:30:45;;;;;;;18.30;17.10;;;;;;;;;;5093236;28;20404;-85
2021/10/21 05:33:12;;;;;;;19.10;17.97;;;;;;;;;;5093290;28;20496;-85
2021/10/21 05:35:40;;;;;;;18.60;17.60;;;;;;;;;;5093405;28;20416;-85
2021/10/21 05:38:07;;;;;;;18.53;17.53;;;;;;;;;;5093225;28;20434;-84
2021/10/21 05:40:36;;;;;;;18.10;17.20;;;;;;;;;;5093342;28;20480;-84
2021/10/21 05:43:04;;;;;;;18.13;17.10;;;;;;;;;;5093274;28;20985;-86
2021/10/21 05:45:31;;;;;;;17.70;16.80;;;;;;;;;;5092694;28;20420;-86
2021/10/21 05:47:58;;;;;;;18.00;16.90;;;;;;;;;;5093373;28;20437;-86
2021/10/21 05:50:26;;;;;;;17.97;17.07;;;;;;;;;;5093602;28;20426;-85
2021/10/21 05:52:53;;;;;;;17.77;16.90;;;;;;;;;;5092994;28;20922;-85
2021/10/21 05:55:20;;;;;;;18.13;17.20;;;;;;;;;;5093136;28;20447;-85
2021/10/21 05:57:49;;;;;;;18.47;17.57;;;;;;;;;;5092628;28;20454;-84
2021/10/21 06:00:17;;;;;;;19.77;18.13;;;;;;;;;;5092686;28;20415;-83
2021/10/21 06:02:44;;;;;;;18.33;17.43;;;;;;;;;;5093380;28;20441;-85
2021/10/21 06:05:12;;;;;;;18.53;17.57;;;;;;;;;;5092332;28;20815;-85
2021/10/21 06:07:39;;;;;;;19.27;18.00;;;;;;;;;;5093667;28;20425;-85
2021/10/21 06:10:07;;;;;;;19.00;17.77;;;;;;;;;;5096995;28;20914;-85
2021/10/21 06:12:34;;;;;;;18.17;17.13;;;;;;;;;;5096804;28;20440;-85
2021/10/21 06:15:04;;;;;;;17.70;16.90;;;;;;;;;;5096545;28;20445;-86
2021/10/21 06:17:32;;;;;;;19.03;18.03;;;;;;;;;;5096253;27;20548;-83
2021/10/21 06:19:59;;;;;;;18.13;17.23;;;;;;;;;;5095818;28;20501;-83
2021/10/21 06:22:27;;;;;;;18.20;17.30;;;;;;;;;;5095782;28;20433;-84
2021/10/21 06:24:55;;;;;;;18.00;16.90;;;;;;;;;;5095378;28;20956;-83
2021/10/21 06:27:22;;;;;;;17.83;16.93;;;;;;;;;;5095665;28;20430;-82
2021/10/21 06:29:49;;;;;;;18.23;17.20;;;;;;;;;;5096210;28;20419;-85
2021/10/21 06:32:22;;;;;;;17.83;16.93;;;;;;;;;;5096450;28;20830;-85
2021/10/21 06:34:49;;;;;;;17.53;16.53;;;;;;;;;;5096100;28;20423;-83
2021/10/21 06:37:16;;;;;;;17.27;16.47;;;;;;;;;;5095735;28;20428;-83
2021/10/21 06:39:44;;;;;;;18.63;17.73;;;;;;;;;;5095742;28;20642;-84
2021/10/21 06:42:11;;;;;;;18.13;17.23;;;;;;;;;;5095494;28;20441;-83
2021/10/21 06:44:38;;;;;;;17.87;16.87;;;;;;;;;;5095208;28;20977;-83
2021/10/21 06:47:06;;;;;;;17.50;16.70;;;;;;;;;;5095515;28;20437;-85
2021/10/21 06:49:34;;;;;;;17.70;16.90;;;;;;;;;;5095824;28;20431;-85
2021/10/21 06:52:02;;;;;;;18.70;17.70;;;;;;;;;;5095808;28;20437;-85
2021/10/21 06:54:29;;;;;;;17.63;16.80;;;;;;;;;;5095847;28;20444;-83
2021/10/21 06:56:57;;;;;;;18.57;17.43;;;;;;;;;;5095187;28;20495;-84
2021/10/21 06:59:26;;;;;;;18.00;17.00;;;;;;;;;;5095775;28;20415;-85
2021/10/21 07:01:54;;;;;;;19.10;17.97;;;;;;;;;;5095346;28;20412;-84
2021/10/21 07:04:24;;;;;;;18.73;17.73;;;;;;;;;;5095210;28;20466;-83
2021/10/21 07:06:52;;;;;;;18.30;17.30;;;;;;;;;;5095559;28;20480;-83
2021/10/21 07:09:20;;;;;;;18.20;17.20;;;;;;;;;;5095265;28;20415;-82
2021/10/21 07:11:47;;;;;;;18.10;17.30;;;;;;;;;;5095383;28;20433;-84
2021/10/21 07:14:16;;;;;;;17.60;16.57;;;;;;;;;;5095363;28;20517;-84
2021/10/21 07:16:43;;;;;;;18.43;17.33;;;;;;;;;;5095507;28;20486;-84
2021/10/21 07:19:11;;;;;;;17.87;17.03;;;;;;;;;;5095253;28;20528;-84
2021/10/21 07:21:39;;;;;;;17.90;17.00;;;;;;;;;;5095261;28;20449;-84
2021/10/21 07:24:08;;;;;;;18.00;17.00;;;;;;;;;;5094874;28;20484;-84
2021/10/21 07:26:35;;;;;;;18.57;17.47;;;;;;;;;;5094941;28;20427;-83
2021/10/21 07:29:03;;;;;;;18.30;17.40;;;;;;;;;;5095105;28;20942;-84
2021/10/21 07:31:31;;;;;;;18.30;17.40;;;;;;;;;;5093579;28;20435;-84
2021/10/21 07:33:58;;;;;;;19.23;18.10;;;;;;;;;;5094961;28;20444;-83
2021/10/21 07:36:26;;;;;;;18.50;17.60;;;;;;;;;;5094532;28;20415;-84
2021/10/21 07:38:53;;;;;;;18.70;17.80;;;;;;;;;;5094912;28;20439;-84
2021/10/21 07:41:27;;;;;;;19.73;18.63;;;;;;;;;;5094863;28;20434;-84
2021/10/21 07:43:54;;;;;;;20.23;18.87;;;;;;;;;;5094135;28;21066;-85
2021/10/21 07:46:21;;;;;;;36.57;34.57;;;;;;;;;;5094832;28;20882;-84
2021/10/21 07:48:51;;;;;;;32.83;31.23;;;;;;;;;;5094698;28;20414;-84
2021/10/21 07:51:18;;;;;;;48.07;45.67;;;;;;;;;;5094704;28;20493;-86
2021/10/21 07:53:46;;;;;;;45.70;43.40;;;;;;;;;;5074404;28;20431;-85
2021/10/21 07:56:13;;;;;;;43.20;41.10;;;;;;;;;;5073768;28;20442;-85
2021/10/21 07:58:42;;;;;;;51.13;48.37;;;;;;;;;;5074109;28;20471;-85
2021/10/21 08:01:09;;;;;;;48.30;45.90;;;;;;;;;;5074634;28;21275;-86
2021/10/21 08:03:37;;;;;;;47.73;45.33;;;;;;;;;;5073682;28;20850;-85
2021/10/21 08:06:04;;;;;;;46.63;44.33;;;;;;;;;;5074666;28;20935;-86
2021/10/21 08:08:32;;;;;;;47.00;44.70;;;;;;;;;;5073392;28;20430;-85
2021/10/21 08:10:59;;;;;;;46.20;44.00;;;;;;;;;;5073494;28;20430;-85
2021/10/21 08:13:29;;;;;;;46.07;43.87;;;;;;;;;;5074523;28;20447;-85
2021/10/21 08:15:58;;;;;;;52.67;50.27;;;;;;;;;;5074406;28;20447;-85
2021/10/21 08:18:25;;;;;;;50.70;48.33;;;;;;;;;;5074372;28;20898;-85
2021/10/21 08:20:52;;;;;;;51.60;49.20;;;;;;;;;;5073966;28;20434;-84
2021/10/21 08:23:20;;;;;;;51.23;48.83;;;;;;;;;;5073759;28;20464;-84
2021/10/21 08:25:47;;;;;;;50.50;48.00;;;;;;;;;;5073479;28;20515;-84
2021/10/21 08:28:15;;;;;;;52.17;49.67;;;;;;;;;;5072479;28;20545;-87
2021/10/21 08:30:43;;;;;;;49.80;47.50;;;;;;;;;;5073595;28;20499;-86
2021/10/21 08:33:13;;;;;;;53.17;50.67;;;;;;;;;;5074230;28;20616;-84
2021/10/21 08:35:40;;;;;;;49.90;47.50;;;;;;;;;;5073889;28;20214;-83
2021/10/21 08:38:08;;;;;;;50.27;47.87;;;;;;;;;;5073646;28;20404;-84
2021/10/21 08:40:38;;;;;;;46.43;44.23;;;;;;;;;;5073226;28;20982;-84
2021/10/21 08:43:06;;;;;;;46.27;44.00;;;;;;;;;;5072480;28;20432;-84
2021/10/21 08:45:33;;;;;;;48.70;46.40;;;;;;;;;;5073157;28;20463;-82
2021/10/21 08:48:03;;;;;;;45.30;43.20;;;;;;;;;;5073101;28;20434;-81
2021/10/21 08:50:33;;;;;;;49.80;47.07;;;;;;;;;;5072683;28;20961;-82
2021/10/21 08:53:01;;;;;;;45.03;42.83;;;;;;;;;;5073205;28;20420;-82
2021/10/21 08:55:28;;;;;;;47.17;44.90;;;;;;;;;;5073091;28;20531;-83
2021/10/21 08:57:55;;;;;;;49.97;47.57;;;;;;;;;;5072819;28;20484;-83
2021/10/21 09:00:24;;;;;;;42.70;40.70;;;;;;;;;;5073257;28;20418;-84
2021/10/21 09:02:54;;;;;;;44.07;41.77;;;;;;;;;;5072803;28;20412;-83
2021/10/21 09:05:29;;;;;;;45.40;43.30;;;;;;;;;;5072849;28;20990;-83
2021/10/21 09:08:08;;;;;;;41.10;39.00;;;;;;;;;;5073238;28;20964;-83
2021/10/21 09:10:44;;;;;;;39.70;37.60;;;;;;;;;;5072896;28;20418;-83
2021/10/21 09:13:19;;;;;;;40.33;38.40;;;;;;;;;;5073115;28;20418;-82
2021/10/21 09:15:49;;;;;;;42.37;40.37;;;;;;;;;;5072773;28;20894;-84
2021/10/21 09:18:17;;;;;;;37.90;35.40;;;;;;;;;;5073046;28;20415;-83
2021/10/21 09:20:45;;;;;;;38.60;36.47;;;;;;;;;;5072814;28;20483;-84
2021/10/21 09:23:16;;;;;;;38.13;36.23;;;;;;;;;;5072972;28;20471;-83
2021/10/21 09:25:43;;;;;;;35.33;33.53;;;;;;;;;;5072808;28;20464;-83
2021/10/21 09:28:18;;;;;;;35.30;33.17;;;;;;;;;;5072696;28;20418;-82
2021/10/21 09:30:51;;;;;;;34.43;32.43;;;;;;;;;;5072748;28;20448;-83
2021/10/21 09:33:18;;;;;;;35.30;32.60;;;;;;;;;;5072939;28;20416;-82
2021/10/21 09:35:52;;;;;;;31.97;29.87;;;;;;;;;;5072600;28;20423;-83
2021/10/21 09:38:21;;;;;;;32.17;30.17;;;;;;;;;;5073089;28;20440;-83
2021/10/21 09:40:48;;;;;;;30.63;28.73;;;;;;;;;;5072857;28;20440;-84
2021/10/21 09:43:15;;;;;;;33.17;31.17;;;;;;;;;;5075455;28;20616;-83
2021/10/21 09:45:44;;;;;;;30.83;28.73;;;;;;;;;;5076476;28;20491;-84
2021/10/21 09:48:20;;;;;;;28.30;26.80;;;;;;;;;;5076497;28;20772;-83
2021/10/21 09:50:48;;;;;;;26.90;25.40;;;;;;;;;;5076411;28;20455;-83
2021/10/21 09:53:19;;;;;;;24.20;22.70;;;;;;;;;;5076375;28;20419;-83
2021/10/21 09:55:49;;;;;;;24.20;22.63;;;;;;;;;;5075152;28;20449;-83
2021/10/21 09:58:18;;;;;;;21.63;19.50;;;;;;;;;;5076058;28;20454;-83
2021/10/21 10:00:46;;;;;;;20.77;19.57;;;;;;;;;;5075849;28;20416;-82
2021/10/21 10:03:14;;;;;;;22.07;20.50;;;;;;;;;;5076302;28;20798;-84
2021/10/21 10:05:42;;;;;;;30.67;28.63;;;;;;;;;;5076190;28;20481;-84
2021/10/21 10:08:10;;;;;;;29.40;27.47;;;;;;;;;;5076355;28;20877;-84
2021/10/21 10:10:38;;;;;;;28.73;27.08;;;;;;;;;;5076293;28;20499;-83
2021/10/21 10:13:11;;;;;;;22.83;21.53;;;;;;;;;;5076349;28;20623;-85
2021/10/21 10:15:39;;;;;;;23.30;21.70;;;;;;;;;;5076173;28;20427;-83
2021/10/21 10:18:07;;;;;;;23.43;21.30;;;;;;;;;;5076284;28;20415;-84
2021/10/21 10:20:35;;;;;;;21.17;19.97;;;;;;;;;;5076256;28;21107;-84
2021/10/21 10:23:04;;;;;;;20.80;19.53;;;;;;;;;;5076339;28;20443;-84
2021/10/21 10:25:32;;;;;;;21.30;19.90;;;;;;;;;;5075821;28;20450;-84
2021/10/21 10:28:00;;;;;;;21.47;19.57;;;;;;;;;;5074376;28;20450;-84
2021/10/21 10:30:48;;;;;;;20.80;19.07;;;;;;;;;;5075496;28;20972;-84
2021/10/21 10:33:37;;;;;;;19.67;18.27;;;;;;;;;;5075439;28;20898;-83
2021/10/21 10:36:23;;;;;;;21.27;19.43;;;;;;;;;;5075766;28;20416;-84
2021/10/21 10:38:51;;;;;;;20.30;19.03;;;;;;;;;;5075878;28;20446;-84
2021/10/21 10:41:34;;;;;;;20.50;19.20;;;;;;;;;;5075550;28;20411;-83
2021/10/21 10:44:01;;;;;;;20.67;18.93;;;;;;;;;;5075105;28;20439;-84
2021/10/21 10:46:43;;;;;;;21.63;20.03;;;;;;;;;;5075313;28;20456;-83
2021/10/21 10:49:13;;;;;;;21.40;19.70;;;;;;;;;;5075705;28;20423;-84
2021/10/21 10:52:00;;;;;;;21.47;20.00;;;;;;;;;;5075363;28;20419;-83
2021/10/21 10:54:46;;;;;;;22.10;20.50;;;;;;;;;;5075108;28;20419;-84
2021/10/21 10:57:14;;;;;;;20.97;19.67;;;;;;;;;;5075122;28;20456;-84
2021/10/21 10:59:43;;;;;;;21.00;19.57;;;;;;;;;;5075157;28;20423;-84
2021/10/21 11:02:28;;;;;;;20.70;19.30;;;;;;;;;;5075533;28;20509;-84
2021/10/21 11:05:05;;;;;;;21.53;19.33;;;;;;;;;;5074990;28;20847;-84
2021/10/21 11:07:48;;;;;;;21.20;19.60;;;;;;;;;;5075188;28;20440;-83
2021/10/21 11:10:35;;;;;;;20.43;19.33;;;;;;;;;;5075252;28;20829;-83
2021/10/21 11:13:02;;;;;;;21.23;19.77;;;;;;;;;;5075561;28;20429;-84
2021/10/21 11:15:39;;;;;;;20.77;19.27;;;;;;;;;;5075132;28;20446;-83
2021/10/21 11:18:07;;;;;;;21.33;19.30;;;;;;;;;;5074504;28;20480;-84
2021/10/21 11:20:42;;;;;;;18.57;17.57;;;;;;;;;;5075034;28;20799;-85
2021/10/21 11:23:29;;;;;;;18.57;17.67;;;;;;;;;;5075119;28;20437;-84
2021/10/21 11:26:01;;;;;;;21.83;20.23;;;;;;;;;;5074492;28;21043;-84
2021/10/21 11:28:29;;;;;;;21.10;19.70;;;;;;;;;;5074781;28;20532;-84
2021/10/21 11:30:56;;;;;;;20.70;19.40;;;;;;;;;;5074618;28;20438;-85
2021/10/21 11:33:26;;;;;;;31.63;29.47;;;;;;;;;;5075053;28;20449;-85
2021/10/21 11:35:59;;;;;;;32.53;30.63;;;;;;;;;;5075014;28;20515;-85
2021/10/21 11:38:27;;;;;;;36.33;34.63;;;;;;;;;;5074953;28;20452;-84
2021/10/21 11:40:57;;;;;;;27.43;25.50;;;;;;;;;;5074648;28;20762;-84
2021/10/21 11:43:27;;;;;;;31.50;29.10;;;;;;;;;;5075085;28;20449;-84
2021/10/21 11:45:55;;;;;;;25.00;23.40;;;;;;;;;;5074783;28;20574;-85
2021/10/21 11:48:25;;;;;;;28.53;26.73;;;;;;;;;;5075333;28;20415;-85
2021/10/21 11:50:54;;;;;;;28.00;26.30;;;;;;;;;;5074758;28;20512;-85
2021/10/21 11:53:22;;;;;;;27.45;25.40;;;;;;;;;;5074782;28;20449;-85
2021/10/21 11:55:50;;;;;;;25.07;23.40;;;;;;;;;;5074305;28;20209;-84
2021/10/21 11:58:19;;;;;;;26.23;24.60;;;;;;;;;;5072952;28;20467;-85
2021/10/21 12:00:47;;;;;;;28.77;26.23;;;;;;;;;;5074362;28;20770;-85
2021/10/21 12:03:15;;;;;;;25.03;23.73;;;;;;;;;;5074758;28;20765;-84
2021/10/21 12:05:43;;;;;;;25.43;23.80;;;;;;;;;;5073153;28;20454;-85
2021/10/21 12:08:12;;;;;;;28.03;26.53;;;;;;;;;;5074210;28;20490;-83
2021/10/21 12:10:43;;;;;;;27.23;25.73;;;;;;;;;;5073502;28;20437;-82
2021/10/21 12:13:11;;;;;;;28.07;26.47;;;;;;;;;;5072499;28;20940;-82
2021/10/21 12:15:40;;;;;;;26.50;24.90;;;;;;;;;;5073715;28;20453;-82
2021/10/21 12:18:08;;;;;;;24.73;23.43;;;;;;;;;;5073094;28;20198;-83
2021/10/21 12:20:39;;;;;;;22.30;21.13;;;;;;;;;;5073331;28;20430;-82
2021/10/21 12:23:25;;;;;;;26.40;24.37;;;;;;;;;;5072169;28;20423;-82
2021/10/21 12:25:52;;;;;;;25.70;24.30;;;;;;;;;;5073255;28;20888;-83
2021/10/21 12:28:20;;;;;;;21.50;20.37;;;;;;;;;;5072980;28;20460;-82
2021/10/21 12:30:48;;;;;;;21.30;20.20;;;;;;;;;;5073049;28;20442;-83
2021/10/21 12:33:18;;;;;;;20.10;19.20;;;;;;;;;;5073169;28;20430;-83
2021/10/21 12:36:00;;;;;;;23.10;21.90;;;;;;;;;;5073229;28;20407;-83
2021/10/21 12:38:29;;;;;;;21.37;20.00;;;;;;;;;;5072941;28;20194;-83
2021/10/21 12:41:04;;;;;;;21.67;20.23;;;;;;;;;;5073120;28;20423;-83
2021/10/21 12:43:31;;;;;;;22.20;21.00;;;;;;;;;;5072740;28;20201;-83
2021/10/21 12:46:01;;;;;;;19.70;18.80;;;;;;;;;;5073017;28;20978;-82
2021/10/21 12:48:29;;;;;;;22.53;20.77;;;;;;;;;;5072923;28;20438;-83
2021/10/21 12:51:08;;;;;;;21.40;20.13;;;;;;;;;;5072837;28;20404;-82
2021/10/21 12:53:36;;;;;;;21.17;19.97;;;;;;;;;;5073169;28;20437;-84
2021/10/21 12:56:20;;;;;;;20.60;19.50;;;;;;;;;;5072992;28;20416;-84
2021/10/21 12:58:48;;;;;;;19.33;18.27;;;;;;;;;;5072719;28;20527;-83
2021/10/21 13:01:15;;;;;;;20.03;18.70;;;;;;;;;;5072859;28;20812;-82
2021/10/21 13:03:45;;;;;;;18.37;17.37;;;;;;;;;;5072844;28;20436;-83
2021/10/21 13:06:12;;;;;;;18.80;17.80;;;;;;;;;;5072890;28;20618;-82
2021/10/21 13:08:42;;;;;;;19.33;18.33;;;;;;;;;;5072911;28;20441;-83
2021/10/21 13:11:10;;;;;;;19.20;18.30;;;;;;;;;;5072921;28;20419;-82
2021/10/21 13:13:39;;;;;;;19.10;18.00;;;;;;;;;;5072410;28;20535;-83
2021/10/21 13:16:07;;;;;;;19.67;18.60;;;;;;;;;;5073911;28;20416;-83
2021/10/21 13:18:35;;;;;;;19.17;18.23;;;;;;;;;;5076757;28;20460;-82
2021/10/21 13:21:03;;;;;;;19.73;18.73;;;;;;;;;;5076599;28;20412;-82
2021/10/21 13:23:31;;;;;;;20.47;19.17;;;;;;;;;;5076569;28;20919;-84
2021/10/21 13:26:00;;;;;;;19.87;18.53;;;;;;;;;;5076756;28;20872;-83
2021/10/21 13:28:28;;;;;;;20.50;19.30;;;;;;;;;;5076457;28;20480;-83
2021/10/21 13:30:56;;;;;;;20.50;19.33;;;;;;;;;;5076571;28;20416;-84
2021/10/21 13:33:23;;;;;;;20.63;19.53;;;;;;;;;;5076483;28;20476;-83
2021/10/21 13:35:51;;;;;;;19.90;18.80;;;;;;;;;;5076703;28;20413;-84
2021/10/21 13:38:18;;;;;;;20.17;18.90;;;;;;;;;;5076843;28;20415;-83
2021/10/21 13:40:46;;;;;;;20.13;18.87;;;;;;;;;;5076863;28;20444;-83
2021/10/21 13:43:15;;;;;;;20.40;19.30;;;;;;;;;;5076517;28;20420;-82
2021/10/21 13:45:43;;;;;;;19.97;18.77;;;;;;;;;;5076303;28;20451;-83
2021/10/21 13:48:11;;;;;;;21.63;20.40;;;;;;;;;;5076090;28;20894;-81
2021/10/21 13:50:38;;;;;;;20.23;18.90;;;;;;;;;;5075865;28;20412;-82
2021/10/21 13:53:06;;;;;;;70.83;47.37;;;;;;;;;;5076823;28;20416;-89
2021/10/21 13:55:34;;;;;;;35.30;32.63;;;;;;;;;;5077113;28;20542;-90
2021/10/21 13:58:02;;;;;;;32.17;30.37;;;;;;;;;;5076848;28;20509;-93
2021/10/21 14:00:31;;;;;;;29.83;28.03;;;;;;;;;;5086194;28;20461;-95
2021/10/21 14:02:58;;;;;;;30.57;28.67;;;;;;;;;;5085493;28;20446;-92
2021/10/21 14:05:26;;;;;;;28.93;27.23;;;;;;;;;;5079572;28;20421;-96
2021/10/21 14:07:56;;;;;;;29.60;27.70;;;;;;;;;;5077535;28;20422;-96
2021/10/21 14:10:23;;;;;;;29.30;27.60;;;;;;;;;;5085270;28;20440;-94
2021/10/21 14:12:52;;;;;;;28.43;26.40;;;;;;;;;;5082933;28;20411;-96
2021/10/21 14:15:20;;;;;;;27.50;25.50;;;;;;;;;;5077942;28;20510;-93
2021/10/21 14:17:49;;;;;;;27.40;25.80;;;;;;;;;;5080210;28;20918;-96
2021/10/21 14:20:16;;;;;;;27.20;25.60;;;;;;;;;;5079861;28;20452;-91
2021/10/21 14:22:43;;;;;;;28.43;26.73;;;;;;;;;;5077920;28;20419;-95
2021/10/21 14:25:11;;;;;;;28.03;26.03;;;;;;;;;;5077330;28;20423;-96